sensor_id;sensor_type;location;lat;lon;timestamp;P1;durP1;ratioP1;P2;durP2;ratioP2
17265;SDS011;8749;47.076;15.412;2022-07-04T00:02:23;3.60;;;3.30;;
17265;SDS011;8749;47.076;15.412;2022-07-04T00:04:50;3.13;;;3.03;;
17265;SDS011;8749;47.076;15.412;2022-07-04T00:07:17;3.28;;;3.17;;
17265;SDS011;8749;47.076;15.412;2022-07-04T00:09:44;3.30;;;3.10;;
17265;SDS011;8749;47.076;15.412;2022-07-04T00:12:11;4.28;;;3.30;;
17265;SDS011;8749;47.076;15.412;2022-07-04T00:14:38;4.00;;;3.28;;
17265;SDS011;8749;47.076;15.412;2022-07-04T00:17:05;3.38;;;3.17;;
17265;SDS011;8749;47.076;15.412;2022-07-04T00:19:34;3.28;;;3.17;;
17265;SDS011;8749;47.076;15.412;2022-07-04T00:22:01;3.60;;;3.30;;
17265;SDS011;8749;47.076;15.412;2022-07-04T00:24:28;3.70;;;3.50;;
17265;SDS011;8749;47.076;15.412;2022-07-04T00:26:55;4.68;;;3.80;;
17265;SDS011;8749;47.076;15.412;2022-07-04T00:29:22;4.18;;;3.95;;
17265;SDS011;8749;47.076;15.412;2022-07-04T00:31:49;4.60;;;4.30;;
17265;SDS011;8749;47.076;15.412;2022-07-04T00:34:15;4.72;;;3.97;;
17265;SDS011;8749;47.076;15.412;2022-07-04T00:36:44;4.88;;;3.90;;
17265;SDS011;8749;47.076;15.412;2022-07-04T00:39:11;4.43;;;4.10;;
17265;SDS011;8749;47.076;15.412;2022-07-04T00:41:37;4.28;;;4.00;;
17265;SDS011;8749;47.076;15.412;2022-07-04T00:44:05;4.70;;;4.30;;
17265;SDS011;8749;47.076;15.412;2022-07-04T00:46:33;5.10;;;4.68;;
17265;SDS011;8749;47.076;15.412;2022-07-04T00:49:01;4.70;;;4.40;;
17265;SDS011;8749;47.076;15.412;2022-07-04T00:51:29;5.00;;;4.60;;
17265;SDS011;8749;47.076;15.412;2022-07-04T00:53:58;5.25;;;4.68;;
17265;SDS011;8749;47.076;15.412;2022-07-04T00:56:26;5.85;;;4.93;;
17265;SDS011;8749;47.076;15.412;2022-07-04T00:58:53;6.18;;;4.20;;
17265;SDS011;8749;47.076;15.412;2022-07-04T01:01:20;4.05;;;3.85;;
17265;SDS011;8749;47.076;15.412;2022-07-04T01:03:47;3.78;;;3.45;;
17265;SDS011;8749;47.076;15.412;2022-07-04T01:06:14;4.20;;;3.50;;
17265;SDS011;8749;47.076;15.412;2022-07-04T01:08:42;4.13;;;3.83;;
17265;SDS011;8749;47.076;15.412;2022-07-04T01:11:11;5.05;;;4.40;;
17265;SDS011;8749;47.076;15.412;2022-07-04T01:13:39;4.97;;;4.53;;
17265;SDS011;8749;47.076;15.412;2022-07-04T01:16:06;4.68;;;4.28;;
17265;SDS011;8749;47.076;15.412;2022-07-04T01:18:34;5.50;;;5.00;;
17265;SDS011;8749;47.076;15.412;2022-07-04T01:21:03;4.90;;;4.50;;
17265;SDS011;8749;47.076;15.412;2022-07-04T01:23:30;5.43;;;4.88;;
17265;SDS011;8749;47.076;15.412;2022-07-04T01:25:57;6.40;;;4.57;;
17265;SDS011;8749;47.076;15.412;2022-07-04T01:28:24;4.78;;;4.43;;
17265;SDS011;8749;47.076;15.412;2022-07-04T01:30:51;5.43;;;4.93;;
17265;SDS011;8749;47.076;15.412;2022-07-04T01:33:18;5.47;;;4.85;;
17265;SDS011;8749;47.076;15.412;2022-07-04T01:35:45;4.90;;;4.45;;
17265;SDS011;8749;47.076;15.412;2022-07-04T01:38:14;5.10;;;4.68;;
17265;SDS011;8749;47.076;15.412;2022-07-04T01:40:41;8.80;;;4.88;;
17265;SDS011;8749;47.076;15.412;2022-07-04T01:43:09;4.88;;;4.45;;
17265;SDS011;8749;47.076;15.412;2022-07-04T01:45:36;4.72;;;4.35;;
17265;SDS011;8749;47.076;15.412;2022-07-04T01:48:03;5.55;;;4.38;;
17265;SDS011;8749;47.076;15.412;2022-07-04T01:50:31;4.80;;;4.40;;
17265;SDS011;8749;47.076;15.412;2022-07-04T01:52:58;5.20;;;4.80;;
17265;SDS011;8749;47.076;15.412;2022-07-04T01:55:27;21.35;;;15.90;;
17265;SDS011;8749;47.076;15.412;2022-07-04T01:57:54;8.45;;;7.75;;
17265;SDS011;8749;47.076;15.412;2022-07-04T02:00:22;5.57;;;5.07;;
17265;SDS011;8749;47.076;15.412;2022-07-04T02:03:07;4.63;;;4.32;;
17265;SDS011;8749;47.076;15.412;2022-07-04T02:05:34;6.63;;;4.40;;
17265;SDS011;8749;47.076;15.412;2022-07-04T02:08:02;4.60;;;4.30;;
17265;SDS011;8749;47.076;15.412;2022-07-04T02:10:30;4.63;;;4.28;;
17265;SDS011;8749;47.076;15.412;2022-07-04T02:12:57;4.40;;;4.20;;
17265;SDS011;8749;47.076;15.412;2022-07-04T02:15:26;4.35;;;4.05;;
17265;SDS011;8749;47.076;15.412;2022-07-04T02:17:54;4.05;;;3.85;;
17265;SDS011;8749;47.076;15.412;2022-07-04T02:20:21;3.92;;;3.60;;
17265;SDS011;8749;47.076;15.412;2022-07-04T02:22:48;3.75;;;3.55;;
17265;SDS011;8749;47.076;15.412;2022-07-04T02:25:15;3.97;;;3.50;;
17265;SDS011;8749;47.076;15.412;2022-07-04T02:27:43;4.05;;;3.42;;
17265;SDS011;8749;47.076;15.412;2022-07-04T02:30:11;4.53;;;4.13;;
17265;SDS011;8749;47.076;15.412;2022-07-04T02:32:38;4.32;;;4.00;;
17265;SDS011;8749;47.076;15.412;2022-07-04T02:35:06;4.57;;;4.20;;
17265;SDS011;8749;47.076;15.412;2022-07-04T02:37:35;5.38;;;4.30;;
17265;SDS011;8749;47.076;15.412;2022-07-04T02:40:02;4.50;;;4.20;;
17265;SDS011;8749;47.076;15.412;2022-07-04T02:42:29;4.97;;;4.50;;
17265;SDS011;8749;47.076;15.412;2022-07-04T02:44:58;4.78;;;4.38;;
17265;SDS011;8749;47.076;15.412;2022-07-04T02:47:26;4.50;;;4.20;;
17265;SDS011;8749;47.076;15.412;2022-07-04T02:49:53;5.40;;;4.57;;
17265;SDS011;8749;47.076;15.412;2022-07-04T02:52:20;4.78;;;4.43;;
17265;SDS011;8749;47.076;15.412;2022-07-04T02:54:47;5.35;;;4.78;;
17265;SDS011;8749;47.076;15.412;2022-07-04T02:57:15;4.80;;;4.50;;
17265;SDS011;8749;47.076;15.412;2022-07-04T02:59:42;4.93;;;4.63;;
17265;SDS011;8749;47.076;15.412;2022-07-04T03:02:11;4.70;;;4.40;;
17265;SDS011;8749;47.076;15.412;2022-07-04T03:04:38;5.03;;;4.63;;
17265;SDS011;8749;47.076;15.412;2022-07-04T03:07:05;4.68;;;4.28;;
17265;SDS011;8749;47.076;15.412;2022-07-04T03:09:33;4.93;;;4.40;;
17265;SDS011;8749;47.076;15.412;2022-07-04T03:12:01;4.63;;;4.32;;
17265;SDS011;8749;47.076;15.412;2022-07-04T03:14:28;5.22;;;4.35;;
17265;SDS011;8749;47.076;15.412;2022-07-04T03:16:55;4.88;;;4.47;;
17265;SDS011;8749;47.076;15.412;2022-07-04T03:19:23;4.45;;;4.10;;
17265;SDS011;8749;47.076;15.412;2022-07-04T03:21:50;4.07;;;3.78;;
17265;SDS011;8749;47.076;15.412;2022-07-04T03:24:17;4.10;;;3.83;;
17265;SDS011;8749;47.076;15.412;2022-07-04T03:26:44;5.50;;;4.10;;
17265;SDS011;8749;47.076;15.412;2022-07-04T03:29:11;4.93;;;4.15;;
17265;SDS011;8749;47.076;15.412;2022-07-04T03:31:38;4.40;;;4.00;;
17265;SDS011;8749;47.076;15.412;2022-07-04T03:34:04;4.20;;;3.90;;
17265;SDS011;8749;47.076;15.412;2022-07-04T03:36:33;4.40;;;4.10;;
17265;SDS011;8749;47.076;15.412;2022-07-04T03:39:00;4.38;;;4.07;;
17265;SDS011;8749;47.076;15.412;2022-07-04T03:41:27;4.38;;;4.07;;
17265;SDS011;8749;47.076;15.412;2022-07-04T03:43:54;4.40;;;4.10;;
17265;SDS011;8749;47.076;15.412;2022-07-04T03:46:20;4.20;;;3.90;;
17265;SDS011;8749;47.076;15.412;2022-07-04T03:48:47;4.80;;;3.72;;
17265;SDS011;8749;47.076;15.412;2022-07-04T03:51:14;4.32;;;4.03;;
17265;SDS011;8749;47.076;15.412;2022-07-04T03:53:43;7.88;;;6.72;;
17265;SDS011;8749;47.076;15.412;2022-07-04T03:56:10;7.38;;;5.90;;
17265;SDS011;8749;47.076;15.412;2022-07-04T03:58:37;6.88;;;6.18;;
17265;SDS011;8749;47.076;15.412;2022-07-04T04:01:03;6.00;;;5.43;;
17265;SDS011;8749;47.076;15.412;2022-07-04T04:03:30;8.43;;;6.60;;
17265;SDS011;8749;47.076;15.412;2022-07-04T04:06:15;5.00;;;4.70;;
17265;SDS011;8749;47.076;15.412;2022-07-04T04:08:43;5.55;;;5.00;;
17265;SDS011;8749;47.076;15.412;2022-07-04T04:11:10;5.25;;;4.75;;
17265;SDS011;8749;47.076;15.412;2022-07-04T04:13:37;6.18;;;4.57;;
17265;SDS011;8749;47.076;15.412;2022-07-04T04:16:04;7.90;;;5.03;;
17265;SDS011;8749;47.076;15.412;2022-07-04T04:18:31;5.43;;;4.53;;
17265;SDS011;8749;47.076;15.412;2022-07-04T04:20:58;4.80;;;4.50;;
17265;SDS011;8749;47.076;15.412;2022-07-04T04:23:25;4.97;;;4.50;;
17265;SDS011;8749;47.076;15.412;2022-07-04T04:25:53;5.18;;;4.75;;
17265;SDS011;8749;47.076;15.412;2022-07-04T04:28:20;5.57;;;5.07;;
17265;SDS011;8749;47.076;15.412;2022-07-04T04:30:48;5.03;;;4.53;;
17265;SDS011;8749;47.076;15.412;2022-07-04T04:33:15;5.05;;;4.65;;
17265;SDS011;8749;47.076;15.412;2022-07-04T04:35:42;6.53;;;4.82;;
17265;SDS011;8749;47.076;15.412;2022-07-04T04:38:08;5.50;;;5.00;;
17265;SDS011;8749;47.076;15.412;2022-07-04T04:40:36;5.32;;;4.80;;
17265;SDS011;8749;47.076;15.412;2022-07-04T04:43:04;5.68;;;4.90;;
17265;SDS011;8749;47.076;15.412;2022-07-04T04:45:31;5.22;;;4.82;;
17265;SDS011;8749;47.076;15.412;2022-07-04T04:47:58;4.90;;;4.50;;
17265;SDS011;8749;47.076;15.412;2022-07-04T04:50:24;4.90;;;4.50;;
17265;SDS011;8749;47.076;15.412;2022-07-04T04:52:51;5.38;;;4.85;;
17265;SDS011;8749;47.076;15.412;2022-07-04T04:55:18;13.38;;;8.82;;
17265;SDS011;8749;47.076;15.412;2022-07-04T04:57:45;6.40;;;5.10;;
17265;SDS011;8749;47.076;15.412;2022-07-04T05:00:14;5.43;;;4.70;;
17265;SDS011;8749;47.076;15.412;2022-07-04T05:02:41;5.90;;;4.60;;
17265;SDS011;8749;47.076;15.412;2022-07-04T05:05:08;5.00;;;4.47;;
17265;SDS011;8749;47.076;15.412;2022-07-04T05:07:35;15.02;;;4.90;;
17265;SDS011;8749;47.076;15.412;2022-07-04T05:10:02;7.63;;;4.97;;
17265;SDS011;8749;47.076;15.412;2022-07-04T05:12:30;6.68;;;4.93;;
17265;SDS011;8749;47.076;15.412;2022-07-04T05:14:57;4.80;;;4.40;;
17265;SDS011;8749;47.076;15.412;2022-07-04T05:17:25;5.43;;;4.63;;
17265;SDS011;8749;47.076;15.412;2022-07-04T05:19:52;4.95;;;4.35;;
17265;SDS011;8749;47.076;15.412;2022-07-04T05:22:19;5.65;;;4.30;;
17265;SDS011;8749;47.076;15.412;2022-07-04T05:24:47;8.02;;;4.70;;
17265;SDS011;8749;47.076;15.412;2022-07-04T05:27:13;5.47;;;4.97;;
17265;SDS011;8749;47.076;15.412;2022-07-04T05:29:40;5.55;;;5.07;;
17265;SDS011;8749;47.076;15.412;2022-07-04T05:32:07;7.38;;;4.93;;
17265;SDS011;8749;47.076;15.412;2022-07-04T05:34:36;7.00;;;5.00;;
17265;SDS011;8749;47.076;15.412;2022-07-04T05:37:03;7.28;;;4.93;;
17265;SDS011;8749;47.076;15.412;2022-07-04T05:39:30;5.40;;;4.90;;
17265;SDS011;8749;47.076;15.412;2022-07-04T05:41:57;5.05;;;4.75;;
17265;SDS011;8749;47.076;15.412;2022-07-04T05:44:24;7.22;;;4.90;;
17265;SDS011;8749;47.076;15.412;2022-07-04T05:46:51;6.55;;;4.90;;
17265;SDS011;8749;47.076;15.412;2022-07-04T05:49:17;4.65;;;4.35;;
17265;SDS011;8749;47.076;15.412;2022-07-04T05:51:46;5.95;;;4.35;;
17265;SDS011;8749;47.076;15.412;2022-07-04T05:54:13;5.25;;;4.63;;
17265;SDS011;8749;47.076;15.412;2022-07-04T05:56:39;7.50;;;4.70;;
17265;SDS011;8749;47.076;15.412;2022-07-04T05:59:07;7.93;;;5.07;;
17265;SDS011;8749;47.076;15.412;2022-07-04T06:01:35;10.05;;;5.20;;
17265;SDS011;8749;47.076;15.412;2022-07-04T06:04:02;6.32;;;4.45;;
17265;SDS011;8749;47.076;15.412;2022-07-04T06:06:30;4.75;;;4.35;;
17265;SDS011;8749;47.076;15.412;2022-07-04T06:08:58;7.55;;;4.20;;
17265;SDS011;8749;47.076;15.412;2022-07-04T06:11:25;4.72;;;4.20;;
17265;SDS011;8749;47.076;15.412;2022-07-04T06:13:52;4.53;;;4.13;;
17265;SDS011;8749;47.076;15.412;2022-07-04T06:16:19;6.63;;;4.10;;
17265;SDS011;8749;47.076;15.412;2022-07-04T06:18:46;7.03;;;4.40;;
17265;SDS011;8749;47.076;15.412;2022-07-04T06:21:13;5.50;;;4.30;;
17265;SDS011;8749;47.076;15.412;2022-07-04T06:23:40;5.30;;;4.70;;
17265;SDS011;8749;47.076;15.412;2022-07-04T06:26:08;7.15;;;4.90;;
17265;SDS011;8749;47.076;15.412;2022-07-04T06:28:35;5.00;;;4.47;;
17265;SDS011;8749;47.076;15.412;2022-07-04T06:31:02;7.82;;;5.28;;
17265;SDS011;8749;47.076;15.412;2022-07-04T06:33:29;5.50;;;4.97;;
17265;SDS011;8749;47.076;15.412;2022-07-04T06:35:56;5.60;;;5.03;;
17265;SDS011;8749;47.076;15.412;2022-07-04T06:38:24;5.03;;;4.57;;
17265;SDS011;8749;47.076;15.412;2022-07-04T06:40:53;5.75;;;5.15;;
17265;SDS011;8749;47.076;15.412;2022-07-04T06:43:22;6.38;;;5.18;;
17265;SDS011;8749;47.076;15.412;2022-07-04T06:45:49;8.52;;;5.10;;
17265;SDS011;8749;47.076;15.412;2022-07-04T06:48:16;8.68;;;5.18;;
17265;SDS011;8749;47.076;15.412;2022-07-04T06:50:43;6.18;;;5.28;;
17265;SDS011;8749;47.076;15.412;2022-07-04T06:53:10;4.97;;;4.53;;
17265;SDS011;8749;47.076;15.412;2022-07-04T06:55:38;8.68;;;4.55;;
17265;SDS011;8749;47.076;15.412;2022-07-04T06:58:06;4.90;;;4.45;;
17265;SDS011;8749;47.076;15.412;2022-07-04T07:00:35;4.72;;;4.32;;
17265;SDS011;8749;47.076;15.412;2022-07-04T07:03:02;4.60;;;4.20;;
17265;SDS011;8749;47.076;15.412;2022-07-04T07:05:30;5.30;;;4.40;;
17265;SDS011;8749;47.076;15.412;2022-07-04T07:07:57;6.22;;;4.75;;
17265;SDS011;8749;47.076;15.412;2022-07-04T07:10:24;5.03;;;4.53;;
17265;SDS011;8749;47.076;15.412;2022-07-04T07:12:51;5.13;;;4.30;;
17265;SDS011;8749;47.076;15.412;2022-07-04T07:15:18;4.65;;;4.18;;
17265;SDS011;8749;47.076;15.412;2022-07-04T07:17:46;5.85;;;4.25;;
17265;SDS011;8749;47.076;15.412;2022-07-04T07:20:13;5.68;;;4.30;;
17265;SDS011;8749;47.076;15.412;2022-07-04T07:22:40;4.70;;;4.30;;
17265;SDS011;8749;47.076;15.412;2022-07-04T07:25:08;4.53;;;4.05;;
17265;SDS011;8749;47.076;15.412;2022-07-04T07:27:35;5.90;;;4.10;;
17265;SDS011;8749;47.076;15.412;2022-07-04T07:30:03;4.45;;;4.10;;
17265;SDS011;8749;47.076;15.412;2022-07-04T07:32:30;5.80;;;4.38;;
17265;SDS011;8749;47.076;15.412;2022-07-04T07:34:59;7.63;;;4.43;;
17265;SDS011;8749;47.076;15.412;2022-07-04T07:37:26;6.25;;;4.28;;
17265;SDS011;8749;47.076;15.412;2022-07-04T07:39:53;7.43;;;4.20;;
17265;SDS011;8749;47.076;15.412;2022-07-04T07:42:20;4.03;;;3.72;;
17265;SDS011;8749;47.076;15.412;2022-07-04T07:44:49;4.13;;;3.83;;
17265;SDS011;8749;47.076;15.412;2022-07-04T07:47:16;5.53;;;3.80;;
17265;SDS011;8749;47.076;15.412;2022-07-04T07:49:43;4.30;;;3.83;;
17265;SDS011;8749;47.076;15.412;2022-07-04T07:52:14;4.32;;;3.88;;
17265;SDS011;8749;47.076;15.412;2022-07-04T07:54:42;4.22;;;3.80;;
17265;SDS011;8749;47.076;15.412;2022-07-04T07:57:09;4.57;;;3.67;;
17265;SDS011;8749;47.076;15.412;2022-07-04T07:59:36;3.83;;;3.55;;
17265;SDS011;8749;47.076;15.412;2022-07-04T08:02:03;3.83;;;3.53;;
17265;SDS011;8749;47.076;15.412;2022-07-04T08:04:30;7.25;;;3.92;;
17265;SDS011;8749;47.076;15.412;2022-07-04T08:07:03;4.25;;;3.50;;
17265;SDS011;8749;47.076;15.412;2022-07-04T08:09:33;3.47;;;3.17;;
17265;SDS011;8749;47.076;15.412;2022-07-04T08:12:00;3.80;;;2.97;;
17265;SDS011;8749;47.076;15.412;2022-07-04T08:14:29;3.20;;;2.95;;
17265;SDS011;8749;47.076;15.412;2022-07-04T08:16:56;4.03;;;2.70;;
17265;SDS011;8749;47.076;15.412;2022-07-04T08:19:23;3.97;;;3.20;;
17265;SDS011;8749;47.076;15.412;2022-07-04T08:21:51;3.35;;;3.15;;
17265;SDS011;8749;47.076;15.412;2022-07-04T08:24:18;3.40;;;3.10;;
17265;SDS011;8749;47.076;15.412;2022-07-04T08:26:46;2.80;;;2.70;;
17265;SDS011;8749;47.076;15.412;2022-07-04T08:29:14;3.67;;;2.60;;
17265;SDS011;8749;47.076;15.412;2022-07-04T08:31:40;2.83;;;2.67;;
17265;SDS011;8749;47.076;15.412;2022-07-04T08:34:07;3.15;;;2.90;;
17265;SDS011;8749;47.076;15.412;2022-07-04T08:36:34;3.35;;;2.80;;
17265;SDS011;8749;47.076;15.412;2022-07-04T08:39:01;3.08;;;2.88;;
17265;SDS011;8749;47.076;15.412;2022-07-04T08:41:29;2.97;;;2.70;;
17265;SDS011;8749;47.076;15.412;2022-07-04T08:44:04;2.83;;;2.72;;
17265;SDS011;8749;47.076;15.412;2022-07-04T08:46:35;5.47;;;2.92;;
17265;SDS011;8749;47.076;15.412;2022-07-04T08:49:05;2.75;;;2.65;;
17265;SDS011;8749;47.076;15.412;2022-07-04T08:51:37;4.13;;;3.00;;
17265;SDS011;8749;47.076;15.412;2022-07-04T08:54:13;3.47;;;3.17;;
17265;SDS011;8749;47.076;15.412;2022-07-04T08:56:58;3.17;;;2.97;;
17265;SDS011;8749;47.076;15.412;2022-07-04T08:59:44;4.53;;;2.90;;
17265;SDS011;8749;47.076;15.412;2022-07-04T09:02:15;3.65;;;2.80;;
17265;SDS011;8749;47.076;15.412;2022-07-04T09:04:44;6.05;;;3.08;;
17265;SDS011;8749;47.076;15.412;2022-07-04T09:07:11;3.55;;;3.35;;
17265;SDS011;8749;47.076;15.412;2022-07-04T09:09:39;3.10;;;2.90;;
17265;SDS011;8749;47.076;15.412;2022-07-04T09:12:07;3.30;;;3.00;;
17265;SDS011;8749;47.076;15.412;2022-07-04T09:14:34;4.82;;;2.97;;
17265;SDS011;8749;47.076;15.412;2022-07-04T09:17:03;4.07;;;3.35;;
17265;SDS011;8749;47.076;15.412;2022-07-04T09:19:30;2.97;;;2.88;;
17265;SDS011;8749;47.076;15.412;2022-07-04T09:22:01;3.30;;;2.95;;
17265;SDS011;8749;47.076;15.412;2022-07-04T09:24:46;3.55;;;3.30;;
17265;SDS011;8749;47.076;15.412;2022-07-04T09:27:30;3.50;;;3.00;;
17265;SDS011;8749;47.076;15.412;2022-07-04T09:29:58;3.35;;;3.08;;
17265;SDS011;8749;47.076;15.412;2022-07-04T09:32:36;5.07;;;3.20;;
17265;SDS011;8749;47.076;15.412;2022-07-04T09:35:05;4.85;;;3.20;;
17265;SDS011;8749;47.076;15.412;2022-07-04T09:37:34;3.10;;;2.80;;
17265;SDS011;8749;47.076;15.412;2022-07-04T09:40:06;3.00;;;2.85;;
17265;SDS011;8749;47.076;15.412;2022-07-04T09:42:35;3.28;;;2.92;;
17265;SDS011;8749;47.076;15.412;2022-07-04T09:45:07;3.55;;;3.25;;
17265;SDS011;8749;47.076;15.412;2022-07-04T09:47:37;3.20;;;2.95;;
17265;SDS011;8749;47.076;15.412;2022-07-04T09:50:06;4.45;;;3.20;;
17265;SDS011;8749;47.076;15.412;2022-07-04T09:52:46;3.08;;;2.90;;
17265;SDS011;8749;47.076;15.412;2022-07-04T09:55:19;3.60;;;3.20;;
17265;SDS011;8749;47.076;15.412;2022-07-04T09:57:50;3.42;;;3.20;;
17265;SDS011;8749;47.076;15.412;2022-07-04T10:00:19;3.55;;;3.20;;
17265;SDS011;8749;47.076;15.412;2022-07-04T10:02:49;3.50;;;3.20;;
17265;SDS011;8749;47.076;15.412;2022-07-04T10:05:20;4.35;;;3.42;;
17265;SDS011;8749;47.076;15.412;2022-07-04T10:07:48;3.47;;;3.28;;
17265;SDS011;8749;47.076;15.412;2022-07-04T10:10:22;3.35;;;3.05;;
17265;SDS011;8749;47.076;15.412;2022-07-04T10:12:54;4.18;;;3.10;;
17265;SDS011;8749;47.076;15.412;2022-07-04T10:15:22;2.83;;;2.70;;
17265;SDS011;8749;47.076;15.412;2022-07-04T10:17:50;3.78;;;3.10;;
17265;SDS011;8749;47.076;15.412;2022-07-04T10:20:17;4.18;;;3.08;;
17265;SDS011;8749;47.076;15.412;2022-07-04T10:22:44;3.30;;;3.00;;
17265;SDS011;8749;47.076;15.412;2022-07-04T10:25:12;3.25;;;3.00;;
17265;SDS011;8749;47.076;15.412;2022-07-04T10:27:39;3.25;;;2.88;;
17265;SDS011;8749;47.076;15.412;2022-07-04T10:30:06;3.03;;;2.92;;
17265;SDS011;8749;47.076;15.412;2022-07-04T10:32:36;3.22;;;3.03;;
17265;SDS011;8749;47.076;15.412;2022-07-04T10:35:05;3.30;;;3.00;;
17265;SDS011;8749;47.076;15.412;2022-07-04T10:40:39;3.00;;;2.80;;
17265;SDS011;8749;47.076;15.412;2022-07-04T10:49:06;3.40;;;2.90;;
17265;SDS011;8749;47.076;15.412;2022-07-04T10:51:44;4.25;;;3.10;;
17265;SDS011;8749;47.076;15.412;2022-07-04T10:54:13;3.10;;;2.90;;
17265;SDS011;8749;47.076;15.412;2022-07-04T10:56:42;3.17;;;2.97;;
17265;SDS011;8749;47.076;15.412;2022-07-04T10:59:15;3.70;;;2.83;;
17265;SDS011;8749;47.076;15.412;2022-07-04T11:01:44;3.60;;;3.30;;
17265;SDS011;8749;47.076;15.412;2022-07-04T11:07:13;4.20;;;3.80;;
17265;SDS011;8749;47.076;15.412;2022-07-04T11:09:40;4.13;;;3.83;;
17265;SDS011;8749;47.076;15.412;2022-07-04T11:12:08;3.20;;;3.00;;
17265;SDS011;8749;47.076;15.412;2022-07-04T11:14:37;3.72;;;3.30;;
17265;SDS011;8749;47.076;15.412;2022-07-04T11:17:05;3.50;;;3.30;;
17265;SDS011;8749;47.076;15.412;2022-07-04T11:19:32;3.30;;;3.03;;
17265;SDS011;8749;47.076;15.412;2022-07-04T11:21:59;4.57;;;3.28;;
17265;SDS011;8749;47.076;15.412;2022-07-04T11:24:28;3.30;;;3.15;;
17265;SDS011;8749;47.076;15.412;2022-07-04T11:26:55;3.60;;;3.40;;
17265;SDS011;8749;47.076;15.412;2022-07-04T11:29:23;3.58;;;3.30;;
17265;SDS011;8749;47.076;15.412;2022-07-04T11:31:50;3.85;;;3.42;;
17265;SDS011;8749;47.076;15.412;2022-07-04T11:34:18;3.67;;;3.40;;
17265;SDS011;8749;47.076;15.412;2022-07-04T11:36:45;3.97;;;3.50;;
17265;SDS011;8749;47.076;15.412;2022-07-04T11:39:13;3.50;;;3.30;;
17265;SDS011;8749;47.076;15.412;2022-07-04T11:41:46;3.33;;;3.10;;
17265;SDS011;8749;47.076;15.412;2022-07-04T11:44:33;3.50;;;3.30;;
17265;SDS011;8749;47.076;15.412;2022-07-04T11:47:19;3.58;;;3.38;;
17265;SDS011;8749;47.076;15.412;2022-07-04T11:49:48;3.33;;;3.13;;
17265;SDS011;8749;47.076;15.412;2022-07-04T11:52:16;4.20;;;3.90;;
17265;SDS011;8749;47.076;15.412;2022-07-04T11:54:45;3.58;;;3.28;;
17265;SDS011;8749;47.076;15.412;2022-07-04T11:57:14;3.67;;;3.30;;
17265;SDS011;8749;47.076;15.412;2022-07-04T11:59:50;3.35;;;3.25;;
17265;SDS011;8749;47.076;15.412;2022-07-04T12:02:19;6.43;;;3.90;;
17265;SDS011;8749;47.076;15.412;2022-07-04T12:04:46;3.67;;;3.38;;
17265;SDS011;8749;47.076;15.412;2022-07-04T12:07:14;4.15;;;3.63;;
17265;SDS011;8749;47.076;15.412;2022-07-04T12:09:42;4.20;;;3.20;;
17265;SDS011;8749;47.076;15.412;2022-07-04T12:12:10;3.50;;;3.28;;
17265;SDS011;8749;47.076;15.412;2022-07-04T12:14:39;3.42;;;3.13;;
17265;SDS011;8749;47.076;15.412;2022-07-04T12:19:55;3.13;;;3.03;;
17265;SDS011;8749;47.076;15.412;2022-07-04T12:22:24;4.38;;;3.08;;
17265;SDS011;8749;47.076;15.412;2022-07-04T12:24:56;3.22;;;3.03;;
17265;SDS011;8749;47.076;15.412;2022-07-04T12:27:24;3.30;;;3.00;;
17265;SDS011;8749;47.076;15.412;2022-07-04T12:29:53;3.20;;;2.90;;
17265;SDS011;8749;47.076;15.412;2022-07-04T12:32:21;2.70;;;2.60;;
17265;SDS011;8749;47.076;15.412;2022-07-04T12:34:48;3.05;;;2.80;;
17265;SDS011;8749;47.076;15.412;2022-07-04T12:37:15;2.83;;;2.72;;
17265;SDS011;8749;47.076;15.412;2022-07-04T12:39:43;4.03;;;3.72;;
17265;SDS011;8749;47.076;15.412;2022-07-04T12:42:11;2.80;;;2.70;;
17265;SDS011;8749;47.076;15.412;2022-07-04T12:44:40;5.32;;;4.82;;
17265;SDS011;8749;47.076;15.412;2022-07-04T12:47:10;5.88;;;5.38;;
17265;SDS011;8749;47.076;15.412;2022-07-04T12:49:41;3.22;;;3.10;;
17265;SDS011;8749;47.076;15.412;2022-07-04T12:52:10;3.05;;;2.80;;
17265;SDS011;8749;47.076;15.412;2022-07-04T12:54:40;2.97;;;2.88;;
17265;SDS011;8749;47.076;15.412;2022-07-04T12:57:10;3.08;;;2.90;;
17265;SDS011;8749;47.076;15.412;2022-07-04T12:59:40;3.00;;;2.80;;
17265;SDS011;8749;47.076;15.412;2022-07-04T13:02:08;3.40;;;2.92;;
17265;SDS011;8749;47.076;15.412;2022-07-04T13:04:37;2.95;;;2.80;;
17265;SDS011;8749;47.076;15.412;2022-07-04T13:07:14;2.83;;;2.72;;
17265;SDS011;8749;47.076;15.412;2022-07-04T13:09:42;3.00;;;2.90;;
17265;SDS011;8749;47.076;15.412;2022-07-04T13:12:09;3.38;;;3.10;;
17265;SDS011;8749;47.076;15.412;2022-07-04T13:14:53;3.40;;;3.25;;
17265;SDS011;8749;47.076;15.412;2022-07-04T13:17:22;3.13;;;2.92;;
17265;SDS011;8749;47.076;15.412;2022-07-04T13:19:50;4.70;;;3.50;;
17265;SDS011;8749;47.076;15.412;2022-07-04T13:22:18;4.65;;;3.20;;
17265;SDS011;8749;47.076;15.412;2022-07-04T13:24:46;3.25;;;2.88;;
17265;SDS011;8749;47.076;15.412;2022-07-04T13:27:13;3.22;;;3.10;;
17265;SDS011;8749;47.076;15.412;2022-07-04T13:29:40;3.42;;;3.10;;
17265;SDS011;8749;47.076;15.412;2022-07-04T13:32:07;3.22;;;3.13;;
17265;SDS011;8749;47.076;15.412;2022-07-04T13:34:36;3.42;;;3.22;;
17265;SDS011;8749;47.076;15.412;2022-07-04T13:37:03;3.28;;;3.08;;
17265;SDS011;8749;47.076;15.412;2022-07-04T13:39:30;3.22;;;3.10;;
17265;SDS011;8749;47.076;15.412;2022-07-04T13:41:57;3.50;;;3.10;;
17265;SDS011;8749;47.076;15.412;2022-07-04T13:44:24;3.28;;;3.00;;
17265;SDS011;8749;47.076;15.412;2022-07-04T13:46:51;3.30;;;3.00;;
17265;SDS011;8749;47.076;15.412;2022-07-04T13:49:18;3.58;;;3.30;;
17265;SDS011;8749;47.076;15.412;2022-07-04T13:51:47;3.40;;;3.20;;
17265;SDS011;8749;47.076;15.412;2022-07-04T13:54:14;3.10;;;3.00;;
17265;SDS011;8749;47.076;15.412;2022-07-04T13:56:41;3.30;;;3.10;;
17265;SDS011;8749;47.076;15.412;2022-07-04T13:59:08;3.83;;;3.65;;
17265;SDS011;8749;47.076;15.412;2022-07-04T14:01:35;3.28;;;3.08;;
17265;SDS011;8749;47.076;15.412;2022-07-04T14:04:02;3.45;;;3.13;;
17265;SDS011;8749;47.076;15.412;2022-07-04T14:06:30;4.53;;;3.15;;
17265;SDS011;8749;47.076;15.412;2022-07-04T14:08:59;4.15;;;3.00;;
17265;SDS011;8749;47.076;15.412;2022-07-04T14:11:26;3.50;;;2.92;;
17265;SDS011;8749;47.076;15.412;2022-07-04T14:13:53;3.47;;;3.28;;
17265;SDS011;8749;47.076;15.412;2022-07-04T14:16:20;3.20;;;3.00;;
17265;SDS011;8749;47.076;15.412;2022-07-04T14:18:47;3.70;;;3.35;;
17265;SDS011;8749;47.076;15.412;2022-07-04T14:21:14;3.65;;;3.45;;
17265;SDS011;8749;47.076;15.412;2022-07-04T14:23:41;4.65;;;3.10;;
17265;SDS011;8749;47.076;15.412;2022-07-04T14:26:12;4.00;;;2.80;;
17265;SDS011;8749;47.076;15.412;2022-07-04T14:28:40;3.22;;;2.80;;
17265;SDS011;8749;47.076;15.412;2022-07-04T14:31:09;2.90;;;2.80;;
17265;SDS011;8749;47.076;15.412;2022-07-04T14:33:36;3.47;;;2.80;;
17265;SDS011;8749;47.076;15.412;2022-07-04T14:36:03;3.15;;;3.03;;
17265;SDS011;8749;47.076;15.412;2022-07-04T14:38:32;3.05;;;2.80;;
17265;SDS011;8749;47.076;15.412;2022-07-04T14:40:59;3.30;;;3.00;;
17265;SDS011;8749;47.076;15.412;2022-07-04T14:43:37;3.40;;;3.10;;
17265;SDS011;8749;47.076;15.412;2022-07-04T14:46:04;3.17;;;2.88;;
17265;SDS011;8749;47.076;15.412;2022-07-04T14:48:32;3.42;;;3.13;;
17265;SDS011;8749;47.076;15.412;2022-07-04T14:50:58;3.25;;;3.10;;
17265;SDS011;8749;47.076;15.412;2022-07-04T14:53:26;3.03;;;2.85;;
17265;SDS011;8749;47.076;15.412;2022-07-04T14:55:53;2.95;;;2.85;;
17265;SDS011;8749;47.076;15.412;2022-07-04T14:58:20;2.90;;;2.70;;
17265;SDS011;8749;47.076;15.412;2022-07-04T15:00:48;3.00;;;2.80;;
17265;SDS011;8749;47.076;15.412;2022-07-04T15:03:15;3.00;;;2.80;;
17265;SDS011;8749;47.076;15.412;2022-07-04T15:05:42;3.70;;;3.50;;
17265;SDS011;8749;47.076;15.412;2022-07-04T15:08:09;4.20;;;3.80;;
17265;SDS011;8749;47.076;15.412;2022-07-04T15:10:36;3.65;;;3.45;;